Time;durP1;ratioP1;P1;durP2;ratioP2;P2;SDS_P1;SDS_P2;PMS_P1;PMS_P2;Temp;Humidity;BMP_temperature;BMP_pressure;BME280_temperature;BME280_humidity;BME280_pressure;Samples;Min_cycle;Max_cycle;Signal;HPM_P1;HPM_P2
2022/05/22 00:00:40;;;;;;;;;;;;;;;-144.99;100.00;52325.81;4986848;28;19925;-73
2022/05/22 00:03:08;;;;;;;;;;;;;;;-144.99;100.00;52354.34;4988075;28;20330;-71
2022/05/22 00:05:34;;;;;;;;;;;;;;;-144.99;100.00;52333.94;4987762;28;20313;-73
2022/05/22 00:08:01;;;;;;;;;;;;;;;-144.99;100.00;52378.78;4987140;28;21178;-74
2022/05/22 00:10:27;;;;;;;;;;;;;;;-144.99;100.00;52354.34;4989228;28;19933;-73
2022/05/22 00:12:53;;;;;;;;;;;;;;;-144.99;100.00;52321.72;4990149;28;20423;-73
2022/05/22 00:15:21;;;;;;;;;;;;;;;-144.99;100.00;52366.56;4988824;28;20221;-74
2022/05/22 00:17:47;;;;;;;;;;;;;;;-144.99;100.00;52382.88;4989836;28;19929;-74
2022/05/22 00:20:14;;;;;;;;;;;;;;;-144.99;100.00;52376.75;4985933;28;19930;-74
2022/05/22 00:22:40;;;;;;;;;;;;;;;-144.99;100.00;52378.78;4985427;28;19934;-74
2022/05/22 00:25:10;;;;;;;;;;;;;;;-144.99;100.00;52342.09;4986733;28;20021;-70
2022/05/22 00:27:36;;;;;;;;;;;;;;;-144.99;100.00;52391.03;4982700;28;19937;-75
2022/05/22 00:30:03;;;;;;;;;;;;;;;-144.99;100.00;52360.44;4985484;28;19945;-75
2022/05/22 00:32:31;;;;;;;;;;;;;;;-144.99;100.00;52362.50;4987260;28;19937;-74
2022/05/22 00:34:57;;;;;;;;;;;;;;;-144.99;100.00;52391.03;4640940;28;10000097;-75
2022/05/22 00:37:23;;;;;;;;;;;;;;;-144.99;100.00;52329.88;4987124;28;19937;-73
2022/05/22 00:39:50;;;;;;;;;;;;;;;-144.99;100.00;52358.41;4987215;28;19961;-72
2022/05/22 00:42:18;;;;;;;;;;;;;;;-144.99;100.00;52348.22;4983459;28;19930;-74
2022/05/22 00:44:44;;;;;;;;;;;;;;;-144.99;100.00;52346.19;4988974;28;19941;-74
2022/05/22 00:47:10;;;;;;;;;;;;;;;-144.99;100.00;52354.34;5023335;22;19926;-71
2022/05/22 00:49:42;;;;;;;;;;;;;;;-144.99;100.00;52342.09;5002741;28;20325;-70
2022/05/22 00:52:12;;;;;;;;;;;;;;;-144.99;100.00;52366.56;5000713;28;19995;-70
2022/05/22 00:54:40;;;;;;;;;;;;;;;-144.99;100.00;52350.25;5001381;28;19930;-70
2022/05/22 00:57:10;;;;;;;;;;;;;;;-144.99;100.00;52354.34;5003435;28;20565;-71
2022/05/22 00:59:39;;;;;;;;;;;;;;;-144.99;100.00;52342.09;5001727;28;19925;-69
2022/05/22 01:02:05;;;;;;;;;;;;;;;-144.99;100.00;52366.56;5002070;28;19960;-70
2022/05/22 01:04:33;;;;;;;;;;;;;;;-144.99;100.00;52386.94;5001293;28;19998;-70
2022/05/22 01:07:01;;;;;;;;;;;;;;;-144.99;100.00;52358.41;5006114;28;19975;-69
2022/05/22 01:09:27;;;;;;;;;;;;;;;-144.99;100.00;52342.09;5005670;28;19925;-69
2022/05/22 01:11:56;;;;;;;;;;;;;;;-144.99;100.00;52370.63;5002301;28;19936;-69
2022/05/22 01:14:23;;;;;;;;;;;;;;;-144.99;100.00;52342.09;5000066;28;19933;-69
2022/05/22 01:16:50;;;;;;;;;;;;;;;-144.99;100.00;52374.72;5003737;28;20320;-71
2022/05/22 01:19:17;;;;;;;;;;;;;;;-144.99;100.00;52358.41;4997826;28;19929;-71
2022/05/22 01:21:50;;;;;;;;;;;;;;;-144.99;100.00;52391.03;5000344;28;20034;-69
2022/05/22 01:24:16;;;;;;;;;;;;;;;-144.99;100.00;52382.88;5005533;28;19976;-69
2022/05/22 01:26:43;;;;;;;;;;;;;;;-144.99;100.00;52346.19;5003194;28;19929;-70
2022/05/22 01:29:09;;;;;;;;;;;;;;;-144.99;100.00;52338.03;5003359;28;20419;-70
2022/05/22 01:31:35;;;;;;;;;;;;;;;-144.99;100.00;52374.72;4999466;28;19929;-69
2022/05/22 01:34:02;;;;;;;;;;;;;;;-144.99;100.00;52356.38;5001646;28;20412;-71
2022/05/22 01:36:28;;;;;;;;;;;;;;;-144.99;100.00;52333.94;5002861;28;19934;-70
2022/05/22 01:38:56;;;;;;;;;;;;;;;-144.99;100.00;52352.28;5007412;28;19999;-72
2022/05/22 01:41:22;;;;;;;;;;;;;;;-144.99;100.00;52386.94;5000378;28;20349;-69
2022/05/22 01:43:48;;;;;;;;;;;;;;;-144.99;100.00;52395.09;5006728;28;19925;-70
2022/05/22 01:46:15;;;;;;;;;;;;;;;-144.99;100.00;52354.34;5005870;28;19932;-69
2022/05/22 01:48:41;;;;;;;;;;;;;;;-144.99;100.00;52382.88;5002357;28;20023;-70
2022/05/22 01:51:09;;;;;;;;;;;;;;;-144.99;100.00;52399.19;5000209;28;19929;-70
2022/05/22 01:53:35;;;;;;;;;;;;;;;-144.99;100.00;52336.00;5002293;28;19926;-72
2022/05/22 01:56:03;;;;;;;;;;;;;;;-144.99;100.00;52388.97;5001686;28;19926;-71
2022/05/22 01:58:29;;;;;;;;;;;;;;;-144.99;100.00;52386.94;4998489;28;20307;-71
2022/05/22 02:00:56;;;;;;;;;;;;;;;-144.99;100.00;52374.72;5000965;28;19932;-71
2022/05/22 02:03:22;;;;;;;;;;;;;;;-144.99;100.00;52403.25;5004306;28;19929;-72
2022/05/22 02:05:48;;;;;;;;;;;;;;;-144.99;100.00;52370.63;5007353;28;20040;-72
2022/05/22 02:08:21;;;;;;;;;;;;;;;-144.99;100.00;52362.50;5001133;28;19946;-73
2022/05/22 02:10:49;;;;;;;;;;;;;;;-144.99;100.00;52333.94;5000488;28;19933;-72
2022/05/22 02:13:20;;;;;;;;;;;;;;;-144.99;100.00;52358.41;4997321;28;19932;-73
2022/05/22 02:15:47;;;;;;;;;;;;;;;-144.99;100.00;52395.09;4998152;28;19937;-72
2022/05/22 02:18:13;;;;;;;;;;;;;;;-144.99;100.00;52362.50;4998814;28;19951;-74
2022/05/22 02:20:39;;;;;;;;;;;;;;;-144.99;100.00;52358.41;5003625;28;19956;-72
2022/05/22 02:23:06;;;;;;;;;;;;;;;-144.99;100.00;52358.41;5004967;28;19926;-72
2022/05/22 02:25:33;;;;;;;;;;;;;;;-144.99;100.00;52333.94;5007212;28;19940;-71
2022/05/22 02:28:00;;;;;;;;;;;;;;;-144.99;100.00;52348.22;5004670;28;19956;-70
2022/05/22 02:30:29;;;;;;;;;;;;;;;-144.99;100.00;52364.53;5002158;28;19929;-71
2022/05/22 02:32:56;;;;;;;;;;;;;;;-144.99;100.00;52407.31;5003346;28;20427;-72
2022/05/22 02:35:23;;;;;;;;;;;;;;;-144.99;100.00;52358.41;5001386;28;19954;-71
2022/05/22 02:37:50;;;;;;;;;;;;;;;-144.99;100.00;52354.34;5002730;28;19932;-71
2022/05/22 02:40:18;;;;;;;;;;;;;;;-144.99;100.00;52358.41;4998289;28;19929;-70
2022/05/22 02:42:46;;;;;;;;;;;;;;;-144.99;100.00;52333.94;5000828;28;19932;-71
2022/05/22 02:45:13;;;;;;;;;;;;;;;-144.99;100.00;52350.25;5003077;28;19925;-71
2022/05/22 02:47:41;;;;;;;;;;;;;;;-144.99;100.00;52364.53;5002417;28;21149;-71
2022/05/22 02:50:08;;;;;;;;;;;;;;;-144.99;100.00;52382.88;4997679;28;20370;-70
2022/05/22 02:52:34;;;;;;;;;;;;;;;-144.99;100.00;52370.63;5006353;28;20023;-72
2022/05/22 02:55:01;;;;;;;;;;;;;;;-144.99;100.00;52401.22;5003485;28;19971;-70
2022/05/22 02:57:28;;;;;;;;;;;;;;;-144.99;100.00;52409.38;5002047;28;19926;-71
2022/05/22 02:59:55;;;;;;;;;;;;;;;-144.99;100.00;52354.34;5002705;28;19926;-73
2022/05/22 03:02:21;;;;;;;;;;;;;;;-144.99;100.00;52395.09;5002160;28;19941;-71
2022/05/22 03:04:49;;;;;;;;;;;;;;;-144.99;100.00;52346.19;5002474;28;19925;-71
2022/05/22 03:07:17;;;;;;;;;;;;;;;-144.99;100.00;52382.88;5002713;28;19925;-72
2022/05/22 03:09:44;;;;;;;;;;;;;;;-144.99;100.00;52378.78;4999574;28;19933;-71
2022/05/22 03:12:12;;;;;;;;;;;;;;;-144.99;100.00;52342.09;5001670;28;19935;-71
2022/05/22 03:14:42;;;;;;;;;;;;;;;-144.99;100.00;52376.75;4999132;28;19972;-72
2022/05/22 03:17:08;;;;;;;;;;;;;;;-144.99;100.00;52370.63;4998639;28;19932;-68
2022/05/22 03:19:34;;;;;;;;;;;;;;;-144.99;100.00;52340.06;5000299;28;19981;-70
2022/05/22 03:22:02;;;;;;;;;;;;;;;-144.99;100.00;52350.25;5005411;28;19933;-71
2022/05/22 03:24:28;;;;;;;;;;;;;;;-144.99;100.00;52350.25;5004190;28;22203;-72
2022/05/22 03:26:55;;;;;;;;;;;;;;;-144.99;100.00;52354.34;5005164;28;19934;-71
2022/05/22 03:29:21;;;;;;;;;;;;;;;-144.99;100.00;52354.34;5003946;28;20020;-71
2022/05/22 03:31:48;;;;;;;;;;;;;;;-144.99;100.00;52370.63;5005328;28;19926;-71
2022/05/22 03:34:14;;;;;;;;;;;;;;;-144.99;100.00;52325.81;5003122;28;19932;-71
2022/05/22 03:36:40;;;;;;;;;;;;;;;-144.99;100.00;52350.25;5005656;28;20126;-71
2022/05/22 03:39:08;;;;;;;;;;;;;;;-144.99;100.00;52372.69;5007334;28;20016;-71
2022/05/22 03:41:36;;;;;;;;;;;;;;;-144.99;100.00;52378.78;5003464;28;19930;-72
2022/05/22 03:44:02;;;;;;;;;;;;;;;-144.99;100.00;52395.09;5002721;28;20402;-70
2022/05/22 03:46:28;;;;;;;;;;;;;;;-144.99;100.00;52372.69;4996044;28;19936;-70
2022/05/22 03:48:55;;;;;;;;;;;;;;;-144.99;100.00;52329.88;5005398;28;20332;-72
2022/05/22 03:51:21;;;;;;;;;;;;;;;-144.99;100.00;52378.78;5001213;28;19949;-71
2022/05/22 03:53:47;;;;;;;;;;;;;;;-144.99;100.00;52362.50;5001491;28;19937;-71
2022/05/22 03:56:16;;;;;;;;;;;;;;;-144.99;100.00;52362.50;5001382;28;19996;-71
2022/05/22 03:58:43;;;;;;;;;;;;;;;-144.99;100.00;52350.25;5004998;28;19936;-69
2022/05/22 04:01:10;;;;;;;;;;;;;;;-144.99;100.00;52340.06;5001686;28;19964;-73
2022/05/22 04:03:36;;;;;;;;;;;;;;;-144.99;100.00;52338.03;5002382;28;19932;-72
2022/05/22 04:06:03;;;;;;;;;;;;;;;-144.99;100.00;52364.53;4999811;28;19929;-72
2022/05/22 04:08:29;;;;;;;;;;;;;;;-144.99;100.00;52344.16;4995686;28;19932;-70
2022/05/22 04:10:56;;;;;;;;;;;;;;;-144.99;100.00;52333.94;5001072;28;19930;-71
2022/05/22 04:13:23;;;;;;;;;;;;;;;-144.99;100.00;52338.03;5003921;28;20004;-69
2022/05/22 04:15:50;;;;;;;;;;;;;;;-144.99;100.00;52354.34;5001628;28;19966;-69
2022/05/22 04:18:18;;;;;;;;;;;;;;;-144.99;100.00;52362.50;5001438;28;19929;-70
2022/05/22 04:20:44;;;;;;;;;;;;;;;-144.99;100.00;52399.19;4999818;28;20024;-71
2022/05/22 04:25:54;;;;;;;;;;;;;;;-144.99;100.00;52336.00;5003723;28;19940;-72
2022/05/22 04:28:21;;;;;;;;;;;;;;;-144.99;100.00;52336.00;5001893;28;19937;-71
2022/05/22 04:30:48;;;;;;;;;;;;;;;-144.99;100.00;52333.94;5001767;28;19930;-71
2022/05/22 04:33:14;;;;;;;;;;;;;;;-144.99;100.00;52350.25;5003321;28;19926;-71
2022/05/22 04:35:42;;;;;;;;;;;;;;;-144.99;100.00;52321.72;5003099;28;19933;-71
2022/05/22 04:38:08;;;;;;;;;;;;;;;-144.99;100.00;52305.41;4999899;28;19961;-70
2022/05/22 04:40:35;;;;;;;;;;;;;;;-144.99;100.00;52305.41;5001890;28;19930;-72
2022/05/22 04:43:01;;;;;;;;;;;;;;;-144.99;100.00;52366.56;5009102;28;19932;-71
2022/05/22 04:45:28;;;;;;;;;;;;;;;-144.99;100.00;52366.56;5010321;28;19925;-73
2022/05/22 04:47:55;;;;;;;;;;;;;;;-144.99;100.00;52329.88;4999339;28;19929;-73
2022/05/22 04:50:22;;;;;;;;;;;;;;;-144.99;100.00;52327.84;5009635;28;19938;-72
2022/05/22 04:52:48;;;;;;;;;;;;;;;-144.99;100.00;52374.72;5002745;28;19927;-71
2022/05/22 04:55:14;;;;;;;;;;;;;;;-144.99;100.00;52358.41;5012892;28;19929;-72
2022/05/22 04:57:41;;;;;;;;;;;;;;;-144.99;100.00;52321.72;5004164;28;19925;-72
2022/05/22 05:00:09;;;;;;;;;;;;;;;-144.99;100.00;52325.81;5009347;28;20512;-73
2022/05/22 05:02:35;;;;;;;;;;;;;;;-144.99;100.00;52325.81;5001448;28;20420;-73
2022/05/22 05:05:05;;;;;;;;;;;;;;;-144.99;100.00;52329.88;5010072;28;19932;-72
2022/05/22 05:07:32;;;;;;;;;;;;;;;-144.99;100.00;52342.09;5009202;28;19933;-72
2022/05/22 05:09:58;;;;;;;;;;;;;;;-144.99;100.00;52313.56;5001797;28;20301;-72
2022/05/22 05:12:25;;;;;;;;;;;;;;;-144.99;100.00;52327.84;5002101;28;20072;-71
2022/05/22 05:14:51;;;;;;;;;;;;;;;-144.99;100.00;52370.63;5005928;28;19940;-71
2022/05/22 05:17:18;;;;;;;;;;;;;;;-144.99;100.00;52321.72;5005158;28;19929;-71
2022/05/22 05:19:45;;;;;;;;;;;;;;;-144.99;100.00;52325.81;5005181;28;19929;-70
2022/05/22 05:22:13;;;;;;;;;;;;;;;-144.99;100.00;52333.94;5004066;28;19936;-71
2022/05/22 05:24:39;;;;;;;;;;;;;;;-144.99;100.00;52338.03;5006695;28;19926;-71
2022/05/22 05:27:06;;;;;;;;;;;;;;;-144.99;100.00;52297.25;5002842;28;20140;-71
2022/05/22 05:29:32;;;;;;;;;;;;;;;-144.99;100.00;52313.56;5004614;28;20312;-71
2022/05/22 05:31:58;;;;;;;;;;;;;;;-144.99;100.00;52338.03;5000901;28;19932;-69
2022/05/22 05:34:25;;;;;;;;;;;;;;;-144.99;100.00;52358.41;5002394;28;19937;-71
2022/05/22 05:36:52;;;;;;;;;;;;;;;-144.99;100.00;52321.72;5002171;28;20089;-69
2022/05/22 05:39:19;;;;;;;;;;;;;;;-144.99;100.00;52309.50;5004455;28;19926;-71
2022/05/22 05:41:46;;;;;;;;;;;;;;;-144.99;100.00;52317.66;5001706;28;19925;-70
2022/05/22 05:44:12;;;;;;;;;;;;;;;-144.99;100.00;52305.41;5003390;28;20692;-72
2022/05/22 05:46:39;;;;;;;;;;;;;;;-144.99;100.00;52378.78;4996727;28;19929;-71
2022/05/22 05:49:06;;;;;;;;;;;;;;;-144.99;100.00;52338.03;5001007;28;19925;-72
2022/05/22 05:51:35;;;;;;;;;;;;;;;-144.99;100.00;52333.94;5005383;28;20412;-72
2022/05/22 05:54:02;;;;;;;;;;;;;;;-144.99;100.00;52338.03;5005306;28;20482;-70
2022/05/22 05:56:30;;;;;;;;;;;;;;;-144.99;100.00;52346.19;4997304;28;20419;-68
2022/05/22 05:58:56;;;;;;;;;;;;;;;-144.99;100.00;52301.34;5007794;28;19929;-69
2022/05/22 06:01:24;;;;;;;;;;;;;;;-144.99;98.57;52309.50;5003731;28;19925;-68
2022/05/22 06:03:50;;;;;;;;;;;;;;;-144.99;97.62;52293.19;5006753;28;19940;-70
2022/05/22 06:06:16;;;;;;;;;;;;;;;-144.99;95.25;52315.59;5002237;28;19927;-70
2022/05/22 06:08:43;;;;;;;;;;;;;;;-144.99;94.55;52309.50;5004641;28;19936;-71
2022/05/22 06:11:10;;;;;;;;;;;;;;;-144.99;94.22;52280.97;5001695;28;19936;-72
2022/05/22 06:13:39;;;;;;;;;;;;;;;-144.99;93.92;52325.81;5001043;28;19932;-71
2022/05/22 06:16:06;;;;;;;;;;;;;;;-144.99;94.19;52317.66;5001550;28;20054;-72
2022/05/22 06:18:33;;;;;;;;;;;;;;;-144.99;93.52;52301.34;5006107;28;20411;-72
2022/05/22 06:20:59;;;;;;;;;;;;;;;-144.99;91.98;52321.72;5000666;28;19930;-71
2022/05/22 06:23:25;;;;;;;;;;;;;;;-144.99;90.19;52293.19;5002766;28;19932;-73
2022/05/22 06:25:53;;;;;;;;;;;;;;;-144.99;88.33;52305.41;5002701;28;19944;-73
2022/05/22 06:28:19;;;;;;;;;;;;;;;-144.99;86.65;52293.19;5005019;28;20235;-71
2022/05/22 06:30:47;;;;;;;;;;;;;;;-144.99;83.64;52272.81;5004300;28;19952;-73
2022/05/22 06:33:15;;;;;;;;;;;;;;;-144.99;81.27;52301.34;5005625;28;19957;-72
2022/05/22 06:35:42;;;;;;;;;;;;;;;-144.99;81.44;52297.25;5001772;28;19981;-73
2022/05/22 06:38:08;;;;;;;;;;;;;;;-144.99;83.70;52293.19;5004525;28;19937;-72
2022/05/22 06:40:33;;;;;;;;;;;;;;;-144.99;85.12;52311.53;5005572;28;19929;-71
2022/05/22 06:43:01;;;;;;;;;;;;;;;-144.99;85.94;52362.50;5004357;28;19933;-72
2022/05/22 06:45:28;;;;;;;;;;;;;;;-144.99;87.11;52317.66;5005289;28;19932;-72
2022/05/22 06:47:56;;;;;;;;;;;;;;;-144.99;87.32;52313.56;5004191;28;19963;-72
2022/05/22 06:50:24;;;;;;;;;;;;;;;-144.99;87.21;52309.50;5023075;23;20037;-70
2022/05/22 06:52:52;;;;;;;;;;;;;;;-144.99;86.90;52289.13;4997283;28;19932;-72
2022/05/22 06:55:18;;;;;;;;;;;;;;;-144.99;87.32;52266.69;5003761;28;19926;-73
2022/05/22 06:57:45;;;;;;;;;;;;;;;-144.99;86.10;52305.41;5001198;28;20388;-72
2022/05/22 07:00:14;;;;;;;;;;;;;;;-144.99;81.90;52278.91;4998631;28;20388;-73
2022/05/22 07:02:41;;;;;;;;;;;;;;;-144.99;81.31;52280.97;5008952;28;19925;-72
2022/05/22 07:05:09;;;;;;;;;;;;;;;-144.99;81.40;52289.13;5009416;28;19937;-73
2022/05/22 07:07:36;;;;;;;;;;;;;;;-144.99;82.54;52352.28;5006487;28;19925;-72
2022/05/22 07:10:02;;;;;;;;;;;;;;;-144.99;83.23;52333.94;5007102;28;19929;-73
2022/05/22 07:12:28;;;;;;;;;;;;;;;-144.99;83.95;52329.88;5007081;28;19925;-72
2022/05/22 07:14:55;;;;;;;;;;;;;;;-144.99;83.31;52278.91;5008925;28;19933;-74
2022/05/22 07:17:24;;;;;;;;;;;;;;;-144.99;82.17;52299.31;5006746;28;19936;-73
2022/05/22 07:19:51;;;;;;;;;;;;;;;-144.99;79.95;52297.25;5007061;28;20020;-73
2022/05/22 07:22:18;;;;;;;;;;;;;;;-144.99;78.81;52276.88;5006130;28;19941;-73
2022/05/22 07:24:44;;;;;;;;;;;;;;;-144.99;78.06;52276.88;5006970;28;19926;-72
2022/05/22 07:27:12;;;;;;;;;;;;;;;-144.99;76.02;52270.78;5006774;28;19926;-73
2022/05/22 07:29:38;;;;;;;;;;;;;;;-144.99;75.56;52285.03;5007714;28;19929;-73
2022/05/22 07:32:05;;;;;;;;;;;;;;;-144.99;74.80;52266.69;5006713;28;19925;-72
2022/05/22 07:34:31;;;;;;;;;;;;;;;-144.99;73.11;52260.56;5006180;28;19926;-74
2022/05/22 07:36:59;;;;;;;;;;;;;;;-144.99;70.94;52244.28;5006587;28;19941;-73
2022/05/22 07:39:27;;;;;;;;;;;;;;;-144.99;70.10;52276.88;5006682;28;20277;-73
2022/05/22 07:41:53;;;;;;;;;;;;;;;-144.99;68.91;52289.13;5006225;28;19984;-74
2022/05/22 07:44:20;;;;;;;;;;;;;;;-144.99;68.41;52262.63;5005917;28;19936;-73
2022/05/22 07:46:46;;;;;;;;;;;;;;;-144.99;67.00;52252.44;5004340;28;20311;-73
2022/05/22 07:50:16;;;;;;;;;;;;;;;-144.99;67.71;52266.69;5004894;28;20184;-73
2022/05/22 07:52:03;;;;;;;;;;;;;;;-144.99;68.33;52260.56;5002303;28;20036;-73
2022/05/22 07:54:33;;;;;;;;;;;;;;;-144.99;66.81;52276.88;5005381;28;19977;-73
2022/05/22 07:56:59;;;;;;;;;;;;;;;-144.99;65.89;52248.34;5004205;28;20005;-71
2022/05/22 07:59:25;;;;;;;;;;;;;;;-144.99;64.82;52230.00;5004422;28;19929;-73
2022/05/22 08:01:51;;;;;;;;;;;;;;;-144.99;63.33;52248.34;5004217;28;20384;-68
2022/05/22 08:04:18;;;;;;;;;;;;;;;-144.99;62.44;52254.47;5005763;28;19933;-73
2022/05/22 08:06:44;;;;;;;;;;;;;;;-144.99;62.62;52248.34;5004487;28;20312;-73
2022/05/22 08:09:10;;;;;;;;;;;;;;;-144.99;62.27;52268.72;5006437;28;19937;-73
2022/05/22 08:11:38;;;;;;;;;;;;;;;-144.99;61.61;52260.56;5008125;28;19936;-72
2022/05/22 08:14:04;;;;;;;;;;;;;;;-144.99;61.42;52223.88;5009102;28;20391;-73
2022/05/22 08:16:31;;;;;;;;;;;;;;;-144.99;61.14;52219.81;5009980;28;19941;-73
2022/05/22 08:18:57;;;;;;;;;;;;;;;-144.99;59.58;52262.63;5008229;28;20392;-73
2022/05/22 08:21:23;;;;;;;;;;;;;;;-144.99;59.76;52256.50;5008210;28;19933;-73
2022/05/22 08:23:50;;;;;;;;;;;;;;;-144.99;57.85;52213.69;5008366;28;20465;-74
2022/05/22 08:26:16;;;;;;;;;;;;;;;-144.99;54.63;52236.13;5008327;28;19932;-74
2022/05/22 08:28:44;;;;;;;;;;;;;;;-144.99;54.72;52219.81;5006277;28;20487;-73
2022/05/22 08:31:11;;;;;;;;;;;;;;;-144.99;54.59;52244.28;5008260;28;19929;-73
2022/05/22 08:33:37;;;;;;;;;;;;;;;-144.99;53.76;52244.28;5006567;28;20022;-73
2022/05/22 08:36:04;;;;;;;;;;;;;;;-144.99;53.22;52174.97;5007739;28;19936;-75
2022/05/22 08:38:30;;;;;;;;;;;;;;;-144.99;52.64;52174.97;5007744;28;19937;-73
2022/05/22 08:40:59;;;;;;;;;;;;;;;-144.99;53.07;52170.91;5008941;28;19925;-75
2022/05/22 08:43:32;;;;;;;;;;;;;;;-144.99;50.24;52225.94;5008552;28;19937;-73
2022/05/22 08:46:03;;;;;;;;;;;;;;;-144.99;50.05;52209.63;5009454;28;19936;-74
2022/05/22 08:48:32;;;;;;;;;;;;;;;-144.99;51.37;52219.81;5007523;28;19937;-75
2022/05/22 08:50:59;;;;;;;;;;;;;;;-144.99;51.54;52236.13;5004726;28;20405;-74
2022/05/22 08:53:29;;;;;;;;;;;;;;;-144.99;52.24;52236.13;5006056;28;20025;-74
2022/05/22 08:58:57;;;;;;;;;;;;;;;-144.99;51.17;52199.44;5009058;28;19936;-74
2022/05/22 09:01:29;;;;;;;;;;;;;;;-144.99;50.89;52183.13;5005257;28;20411;-73
2022/05/22 09:03:58;;;;;;;;;;;;;;;-144.99;51.05;52199.44;5006917;28;19929;-74
2022/05/22 09:06:27;;;;;;;;;;;;;;;-144.99;49.16;52223.88;5011048;28;20204;-74
2022/05/22 09:08:53;;;;;;;;;;;;;;;-144.99;48.08;52191.28;5011982;28;19957;-73
2022/05/22 09:11:26;;;;;;;;;;;;;;;-144.99;47.24;52181.09;5010276;28;19929;-73
2022/05/22 09:13:55;;;;;;;;;;;;;;;-144.99;47.20;52191.28;5006055;28;19926;-73
2022/05/22 09:16:25;;;;;;;;;;;;;;;-144.99;48.66;52179.06;5008630;28;19925;-73
2022/05/22 09:18:56;;;;;;;;;;;;;;;-144.99;48.48;52232.03;5009054;28;20245;-75
2022/05/22 09:21:30;;;;;;;;;;;;;;;-144.99;49.15;52189.25;5003755;28;20112;-73
2022/05/22 09:23:58;;;;;;;;;;;;;;;-144.99;49.07;52203.50;5006221;28;19929;-74
2022/05/22 09:26:30;;;;;;;;;;;;;;;-144.99;49.21;52244.28;5008009;28;19940;-73
2022/05/22 09:29:02;;;;;;;;;;;;;;;-144.99;48.13;52199.44;5010067;28;19930;-74
2022/05/22 09:31:32;;;;;;;;;;;;;;;-144.99;48.22;52203.50;4998417;28;19936;-74
2022/05/22 09:34:05;;;;;;;;;;;;;;;-144.99;47.70;52174.97;5007704;28;19936;-74
2022/05/22 09:36:38;;;;;;;;;;;;;;;-144.99;46.24;52199.44;5006219;28;19937;-75
2022/05/22 09:39:12;;;;;;;;;;;;;;;-144.99;45.63;52221.84;5010681;28;19929;-74
2022/05/22 09:41:46;;;;;;;;;;;;;;;-144.99;44.30;52236.13;5008945;28;19929;-74
2022/05/22 09:44:26;;;;;;;;;;;;;;;-144.99;45.05;52195.34;5008306;28;19936;-75
2022/05/22 09:47:10;;;;;;;;;;;;;;;-144.99;45.44;52168.84;5004968;28;19926;-75
2022/05/22 09:49:46;;;;;;;;;;;;;;;-144.99;45.66;52130.13;5009486;28;20207;-75
2022/05/22 09:52:16;;;;;;;;;;;;;;;-144.99;44.35;52138.28;5007638;28;19929;-74
2022/05/22 09:54:53;;;;;;;;;;;;;;;-144.99;43.71;52146.44;5008956;28;19929;-75
2022/05/22 09:57:27;;;;;;;;;;;;;;;-144.99;43.13;52134.22;5003674;28;19936;-75
2022/05/22 10:00:02;;;;;;;;;;;;;;;-144.99;42.99;52211.66;5005729;28;19933;-74
2022/05/22 10:02:34;;;;;;;;;;;;;;;-144.99;43.48;52195.34;4313166;28;10000709;-74
2022/05/22 10:05:06;;;;;;;;;;;;;;;-144.99;43.64;52162.75;5009131;28;19929;-75
2022/05/22 10:07:37;;;;;;;;;;;;;;;-144.99;44.15;52136.25;5008467;28;19926;-74
2022/05/22 10:10:08;;;;;;;;;;;;;;;-144.99;43.04;52138.28;5008138;28;19940;-76
2022/05/22 10:12:41;;;;;;;;;;;;;;;-144.99;40.69;52203.50;5006283;28;19926;-75
2022/05/22 10:15:17;;;;;;;;;;;;;;;-144.99;41.21;52146.44;5007138;28;19929;-75
2022/05/22 10:17:51;;;;;;;;;;;;;;;-144.99;42.02;52136.25;5002737;28;19929;-74
2022/05/22 10:20:23;;;;;;;;;;;;;;;-144.99;41.99;52119.94;5004094;28;19983;-73
2022/05/22 10:22:57;;;;;;;;;;;;;;;-144.99;40.64;52097.53;5005850;28;19926;-73
2022/05/22 10:25:31;;;;;;;;;;;;;;;-144.99;41.99;52154.59;5003045;28;19929;-73
2022/05/22 10:28:00;;;;;;;;;;;;;;;-144.99;42.40;52211.66;5006342;28;19930;-73
2022/05/22 10:30:30;;;;;;;;;;;;;;;-144.99;42.77;52195.34;5006253;28;20302;-73
2022/05/22 10:32:59;;;;;;;;;;;;;;;-144.99;42.81;52227.97;5004623;28;19936;-73
2022/05/22 10:35:30;;;;;;;;;;;;;;;-144.99;43.42;52232.03;5004366;28;19926;-73
2022/05/22 10:38:01;;;;;;;;;;;;;;;-144.99;43.17;52166.81;5006603;28;19940;-73
2022/05/22 10:42:44;;;;;;;;;;;;;;;-144.99;42.58;52158.66;5006279;28;19930;-73
2022/05/22 10:43:12;;;;;;;;;;;;;;;-144.99;42.89;52117.91;5004946;28;19933;-73
2022/05/22 10:45:40;;;;;;;;;;;;;;;-144.99;41.56;52113.84;5006896;28;20201;-73
2022/05/22 10:48:08;;;;;;;;;;;;;;;-144.99;41.62;52093.44;5005688;28;20419;-72
2022/05/22 10:50:35;;;;;;;;;;;;;;;-144.99;39.70;52097.53;5005351;28;19933;-73
2022/05/22 10:53:02;;;;;;;;;;;;;;;-144.99;40.75;52095.50;5001067;28;19929;-73
2022/05/22 10:55:33;;;;;;;;;;;;;;;-144.99;40.82;52191.28;5007512;28;19930;-75
2022/05/22 10:58:01;;;;;;;;;;;;;;;-144.99;39.70;52101.59;5009159;28;20184;-74
2022/05/22 11:00:28;;;;;;;;;;;;;;;-144.99;39.84;52193.31;5002523;28;19932;-72
2022/05/22 11:02:54;;;;;;;;;;;;;;;-144.99;40.20;52207.59;5002280;28;19960;-74
2022/05/22 11:05:22;;;;;;;;;;;;;;;-144.99;39.74;52105.69;5001996;28;19939;-73
2022/05/22 11:07:51;;;;;;;;;;;;;;;-144.99;39.17;52077.16;5004062;28;20294;-74
2022/05/22 11:10:21;;;;;;;;;;;;;;;-144.99;39.50;52162.75;5005257;28;19932;-73
2022/05/22 11:12:59;;;;;;;;;;;;;;;-144.99;39.98;52203.50;5001420;28;19929;-72
2022/05/22 11:15:28;;;;;;;;;;;;;;;-144.99;40.01;52126.06;5001929;28;19961;-73
2022/05/22 11:18:01;;;;;;;;;;;;;;;-144.99;40.32;52187.19;5004528;28;19930;-73
2022/05/22 11:20:28;;;;;;;;;;;;;;;-144.99;40.21;52091.41;5002574;28;19929;-73
2022/05/22 11:23:01;;;;;;;;;;;;;;;-144.99;39.82;52093.44;5001240;28;19957;-74
2022/05/22 11:25:33;;;;;;;;;;;;;;;-144.99;39.48;52085.31;5004772;28;20412;-74
2022/05/22 11:28:04;;;;;;;;;;;;;;;-144.99;37.98;52048.63;5005013;28;20373;-73
2022/05/22 11:30:35;;;;;;;;;;;;;;;-144.99;37.48;52058.81;5002573;28;19929;-74
2022/05/22 11:33:15;;;;;;;;;;;;;;;-144.99;38.48;52160.72;5002793;28;20436;-73
2022/05/22 11:35:45;;;;;;;;;;;;;;;-144.99;37.69;52113.84;5006147;28;19929;-73
2022/05/22 11:38:21;;;;;;;;;;;;;;;-144.99;37.62;52081.22;5005862;28;19960;-73
2022/05/22 11:40:50;;;;;;;;;;;;;;;-144.99;37.85;52073.06;5005461;28;19932;-74
2022/05/22 11:43:25;;;;;;;;;;;;;;;-144.99;37.73;52117.91;5002329;28;19996;-73
2022/05/22 11:45:53;;;;;;;;;;;;;;;-144.99;37.54;52095.50;5009586;28;20004;-73
2022/05/22 11:48:29;;;;;;;;;;;;;;;-144.99;37.78;52081.22;5009958;28;20325;-74
2022/05/22 11:51:01;;;;;;;;;;;;;;;-144.99;36.97;52093.44;5007331;28;19933;-73
2022/05/22 11:53:46;;;;;;;;;;;;;;;-144.99;36.22;52091.41;5006007;28;20090;-73
2022/05/22 11:56:18;;;;;;;;;;;;;;;-144.99;36.68;52113.84;5006163;28;19926;-72
2022/05/22 11:58:47;;;;;;;;;;;;;;;-144.99;36.91;52130.13;5007847;28;19930;-71
2022/05/22 12:01:16;;;;;;;;;;;;;;;-144.99;35.75;52109.75;5002252;28;19936;-72
2022/05/22 12:03:58;;;;;;;;;;;;;;;-144.99;35.92;52211.66;5006399;28;19933;-72
2022/05/22 12:06:36;;;;;;;;;;;;;;;-144.99;36.10;52199.44;5005508;28;20401;-71
2022/05/22 12:09:08;;;;;;;;;;;;;;;-144.99;35.92;52105.69;5007751;28;19933;-71
2022/05/22 12:11:38;;;;;;;;;;;;;;;-144.99;36.44;52103.66;5005724;28;19929;-72
2022/05/22 12:14:16;;;;;;;;;;;;;;;-144.99;37.56;52101.59;5008349;28;19936;-72
2022/05/22 12:16:46;;;;;;;;;;;;;;;-144.99;36.95;52183.13;5005048;28;19933;-72
2022/05/22 12:19:17;;;;;;;;;;;;;;;-144.99;36.82;52146.44;5005555;28;19926;-72
2022/05/22 12:21:52;;;;;;;;;;;;;;;-144.99;36.38;52121.97;5000847;28;19929;-72
2022/05/22 12:24:24;;;;;;;;;;;;;;;-144.99;36.27;52111.78;5004915;28;19941;-72
2022/05/22 12:26:51;;;;;;;;;;;;;;;-144.99;36.55;52170.91;5006860;28;19925;-72
2022/05/22 12:29:24;;;;;;;;;;;;;;;-144.99;36.59;52101.59;5006837;28;19930;-72
2022/05/22 12:31:53;;;;;;;;;;;;;;;-144.99;36.68;52089.38;5008121;28;19967;-72
2022/05/22 12:34:21;;;;;;;;;;;;;;;-144.99;35.91;52060.84;5008087;28;19929;-73